Terminal Aerodrome Forecast
Issued by NWS

Home | Current Version | Previous Version | Text Only | Print | Product List | Glossary On
Versions: 1 2 3 4 5 6 7 8 9 10 11 12 13 14 15 16 17
000
FTUS46 KMTR 100231 CCA
TAFMRY
TAF COR
KMRY 100231Z 1000/1024 19005KT P6SM SCT030 OVC100
     FM100300 14003KT P6SM SCT015 BKN030
     FM100800 16004KT P6SM -RA OVC008
     FM101500 15008KT 5SM -RA BR OVC012=

USA.gov is the U.S. government's official web portal to all federal, state and local government web resources and services.